METAR AND TAF INFORMATION
METAR FOR PAEH
ADDS - METARS form results

(2111 UTC 29 January 2020)
Data provider http://aviationweather.gov/metar/data/
 
METAR text: PAEH 292055Z AUTO 35034G38KT 310V040 1 1/2SM -SHSN BR OVC015 M22/M24 A2919 RMK AO2 PK WND 01039/2004 SHSNB2018 SLP913 P0000 60000 T12161245 58007
Conditions at: PAEH (CAPE NEWENHAM , AK, US) observed 2055 UTC 29 January 2020
Temperature: -21.6°C (-7°F)
Dewpoint: -24.5°C (-12°F) [RH = 77%]
Pressure (altimeter): 29.19 inches Hg (988.6 mb)
[Sea-level pressure:  991.3 mb]
Winds: from the N (350 degrees) at 39 MPH (34 knots; 17.5 m/s)
gusting to 44 MPH (38 knots; 19.5 m/s)
Visibility: 1.50 miles (2.41 km)
Ceiling: 1500 feet AGL
Clouds: overcast cloud deck at 1500 feet AGL
Weather: -SHSN BR  (light snow showers, mist)

 AIRPORT MAP

 RUNWAY INFORMATION
Runway 14 Runway length 3950 ft Runway width 150 ft
Runway elevation 230 ft Runway displaced threshold 0 ft Runway heading 162
Runway 32 Runway length 3950 ft Runway width 150 ft
Runway elevation 541 ft Runway displaced threshold 0 ft Runway heading 342

 AIRPORT FREQUENCIES
Type CNTR Name ANCHORAGE Frequency 124.2 MHZ
Type FSS Name KENAI RDO Frequency 122.3 MHZ
Type UNIC Name CTAF/UNICO Frequency 126.2 MHZ

 AIRPORT NEAR NAVIGATION AIDS
Type NDB-DME Name Cape Newenham Frequency 385 KHZ



We are a FlightSim virtual group and are in no way affiliated with RavnAir Group.

Powered by Virtual Airlines Manager [v2.6.2]